Carpathia — WBC2454 — position and weather

sailwx.info

Track history (hours):
 
Tides and Currents Weather Stations Pressure Air Temp Water Temp Dewpoint Dewpoint Depression Visibility Wind Speed Wind Dir Waves Ship Positions

Carpathia

Owner: BRUSTOWICZ, THEODORE R, COVINGTON, LA. More information available from US FCC via Universal Licensing System and Coast Guard Vessel Documentation Center.

Last reported at 2014-Dec-20 12:11 UTC. Time now 2014-Dec-21 04:44 UTC.
Position N 29°60' W 091°29'.

Length 23 m; draft 4 m.

Type: Towing. MMSI: 366993420.

Date/timePositionNaut miles runAvg speedWind from/ knotsBaromVisibWave heightAir tempDewpointWater temp
2014-Dec-20 12:11N 29°60' W 091°29'4 4.2
2014-Dec-20 11:12N 29°56' W 091°28'3 4.0
2014-Dec-20 10:30N 29°53' W 091°26'4 3.8
2014-Dec-20 09:33N 29°51' W 091°24'4 4.1
2014-Dec-20 08:33N 29°47' W 091°22'4 3.9
2014-Dec-20 07:33N 29°46' W 091°17'4 3.5
2014-Dec-20 06:34N 29°44' W 091°14'4 3.7
2014-Dec-20 05:33N 29°41' W 091°13'3 3.4
2014-Dec-20 04:33N 29°39' W 091°17'4 4.2
2014-Dec-20 03:33N 29°39' W 091°22'5 4.5
2014-Dec-20 02:33N 29°40' W 091°27'4 3.7
2014-Dec-20 01:33N 29°42' W 091°30'4 4.0
2014-Dec-20 00:33N 29°44' W 091°34'4 3.8
2014-Dec-19 23:31N 29°46' W 091°38'  
2014-Dec-15 09:23N 29°46' W 091°42'5 5.4
2014-Dec-15 08:30N 29°46' W 091°36'4 4.2
2014-Dec-15 07:31N 29°43' W 091°33'5 5.5
2014-Dec-15 06:33N 29°40' W 091°27'5 4.9
2014-Dec-15 05:33N 29°39' W 091°22'6 6.0
2014-Dec-15 04:33N 29°39' W 091°15'5 4.7
2014-Dec-15 03:33N 29°44' W 091°13'3 2.6
2014-Dec-15 02:33N 29°46' W 091°15'7 6.6
2014-Dec-15 01:33N 29°48' W 091°22'7 7.3
2014-Dec-15 00:33N 29°54' W 091°27'  
2014-Dec-10 12:33N 29°53' W 091°26'  
Track history (hours):
 
Tides and Currents Weather Stations Pressure Air Temp Water Temp Dewpoint Dewpoint Depression Visibility Wind Speed Wind Dir Waves Ship Positions

Carpathia

Owner: BRUSTOWICZ, THEODORE R, COVINGTON, LA. More information available from US FCC via Universal Licensing System and Coast Guard Vessel Documentation Center.

Last reported at 2014-Dec-20 12:11 UTC. Time now 2014-Dec-21 04:44 UTC.
Position N 29°60' W 091°29'.

Length 23 m; draft 4 m.

Type: Towing. MMSI: 366993420.

Date/timePositionNaut miles runAvg speedWind from/ knotsBaromVisibWave heightAir tempDewpointWater temp
2014-Dec-20 12:11N 29°60' W 091°29'4 4.2
2014-Dec-20 11:12N 29°56' W 091°28'3 4.0
2014-Dec-20 10:30N 29°53' W 091°26'4 3.8
2014-Dec-20 09:33N 29°51' W 091°24'4 4.1
2014-Dec-20 08:33N 29°47' W 091°22'4 3.9
2014-Dec-20 07:33N 29°46' W 091°17'4 3.5
2014-Dec-20 06:34N 29°44' W 091°14'4 3.7
2014-Dec-20 05:33N 29°41' W 091°13'3 3.4
2014-Dec-20 04:33N 29°39' W 091°17'4 4.2
2014-Dec-20 03:33N 29°39' W 091°22'5 4.5
2014-Dec-20 02:33N 29°40' W 091°27'4 3.7
2014-Dec-20 01:33N 29°42' W 091°30'4 4.0
2014-Dec-20 00:33N 29°44' W 091°34'4 3.8
2014-Dec-19 23:31N 29°46' W 091°38'  
2014-Dec-15 09:23N 29°46' W 091°42'5 5.4
2014-Dec-15 08:30N 29°46' W 091°36'4 4.2
2014-Dec-15 07:31N 29°43' W 091°33'5 5.5
2014-Dec-15 06:33N 29°40' W 091°27'5 4.9
2014-Dec-15 05:33N 29°39' W 091°22'6 6.0
2014-Dec-15 04:33N 29°39' W 091°15'5 4.7
2014-Dec-15 03:33N 29°44' W 091°13'3 2.6
2014-Dec-15 02:33N 29°46' W 091°15'7 6.6
2014-Dec-15 01:33N 29°48' W 091°22'7 7.3
2014-Dec-15 00:33N 29°54' W 091°27'  
2014-Dec-10 12:33N 29°53' W 091°26'  

Dump ship's entire track history